Time;durP1;ratioP1;P1;durP2;ratioP2;P2;SDS_P1;SDS_P2;PMS_P1;PMS_P2;Temp;Humidity;BMP_temperature;BMP_pressure;BME280_temperature;BME280_humidity;BME280_pressure;Samples;Min_cycle;Max_cycle;Signal;HPM_P1;HPM_P2
2022/05/09 00:00:04;;;;;;;;;;;13.80;99.90;;;;;;4993576;28;19997;-80
2022/05/09 00:02:38;;;;;;;;;;;13.80;99.90;;;;;;4996754;28;19933;-81
2022/05/09 00:05:05;;;;;;;;;;;13.80;99.90;;;;;;4991648;28;19936;-80
2022/05/09 00:07:34;;;;;;;;;;;13.80;99.90;;;;;;4996119;28;20301;-80
2022/05/09 00:10:01;;;;;;;;;;;13.80;99.90;;;;;;4994376;28;19960;-81
2022/05/09 00:12:30;;;;;;;;;;;13.80;99.90;;;;;;4991149;28;19957;-81
2022/05/09 00:14:57;;;;;;;;;;;13.80;99.90;;;;;;4976202;28;19973;-80
2022/05/09 00:17:24;;;;;;;;;;;13.70;99.90;;;;;;4993718;28;19941;-82
2022/05/09 00:19:51;;;;;;;;;;;13.70;99.90;;;;;;4992171;28;19926;-81
2022/05/09 00:22:19;;;;;;;;;;;13.70;99.90;;;;;;4992002;28;20458;-81
2022/05/09 00:24:48;;;;;;;;;;;13.70;99.90;;;;;;4991389;28;20028;-80
2022/05/09 00:27:15;;;;;;;;;;;13.70;99.90;;;;;;4988431;28;19936;-80
2022/05/09 00:29:42;;;;;;;;;;;13.70;99.90;;;;;;4984979;28;20025;-80
2022/05/09 00:32:09;;;;;;;;;;;13.70;99.90;;;;;;4982137;23;19934;-79
2022/05/09 00:34:37;;;;;;;;;;;13.70;99.90;;;;;;4965421;28;19934;-79
2022/05/09 00:37:04;;;;;;;;;;;13.70;99.90;;;;;;4968257;28;20376;-80
2022/05/09 00:39:33;;;;;;;;;;;13.60;99.90;;;;;;4970364;28;19934;-79
2022/05/09 00:42:08;;;;;;;;;;;13.60;99.90;;;;;;4966104;28;20313;-80
2022/05/09 00:44:35;;;;;;;;;;;13.60;99.90;;;;;;4951696;28;19983;-79
2022/05/09 00:47:02;;;;;;;;;;;13.60;99.90;;;;;;4952944;28;19931;-79
2022/05/09 00:49:31;;;;;;;;;;;13.60;99.90;;;;;;4955583;28;20017;-79
2022/05/09 00:52:01;;;;;;;;;;;13.60;99.90;;;;;;4951081;28;19933;-79
2022/05/09 00:54:31;;;;;;;;;;;13.50;99.90;;;;;;4938655;28;20312;-80
2022/05/09 00:57:02;;;;;;;;;;;13.50;99.90;;;;;;4945510;28;20013;-80
2022/05/09 00:59:33;;;;;;;;;;;13.50;99.90;;;;;;4932380;28;19934;-79
2022/05/09 01:02:01;;;;;;;;;;;13.50;99.90;;;;;;4950846;28;19983;-80
2022/05/09 01:04:29;;;;;;;;;;;13.50;99.90;;;;;;4951741;28;19941;-80
2022/05/09 01:06:56;;;;;;;;;;;13.50;99.90;;;;;;4966256;28;19934;-79
2022/05/09 01:09:25;;;;;;;;;;;13.40;99.90;;;;;;4955983;28;19934;-79
2022/05/09 01:11:54;;;;;;;;;;;13.50;99.90;;;;;;4953315;28;19926;-79
2022/05/09 01:14:24;;;;;;;;;;;13.50;99.90;;;;;;4952695;28;19926;-77
2022/05/09 01:16:54;;;;;;;;;;;13.50;99.90;;;;;;4934778;28;19970;-79
2022/05/09 01:19:29;;;;;;;;;;;13.40;99.90;;;;;;4933530;28;19935;-79
2022/05/09 01:21:58;;;;;;;;;;;13.40;99.90;;;;;;4949350;28;19926;-79
2022/05/09 01:24:27;;;;;;;;;;;13.40;99.90;;;;;;4947388;28;19927;-78
2022/05/09 01:26:54;;;;;;;;;;;13.40;99.90;;;;;;4929315;28;19927;-79
2022/05/09 01:29:25;;;;;;;;;;;13.40;99.90;;;;;;4950943;28;19934;-79
2022/05/09 01:31:53;;;;;;;;;;;13.40;99.90;;;;;;4949854;28;19934;-79
2022/05/09 01:34:21;;;;;;;;;;;13.40;99.90;;;;;;4948500;28;20324;-79
2022/05/09 01:36:51;;;;;;;;;;;13.30;99.90;;;;;;4952780;28;19935;-79
2022/05/09 01:39:20;;;;;;;;;;;13.30;99.90;;;;;;4951387;28;19949;-79
2022/05/09 01:41:48;;;;;;;;;;;13.30;99.90;;;;;;4952713;28;19937;-79
2022/05/09 01:44:16;;;;;;;;;;;13.30;99.90;;;;;;4956088;28;19961;-79
2022/05/09 01:49:30;;;;;;;;;;;13.30;99.90;;;;;;4952957;28;20296;-79
2022/05/09 01:51:58;;;;;;;;;;;13.30;99.90;;;;;;4944055;28;20014;-79
2022/05/09 01:54:26;;;;;;;;;;;13.30;99.90;;;;;;4941185;28;19981;-79
2022/05/09 01:56:54;;;;;;;;;;;13.20;99.90;;;;;;4963071;28;19985;-79
2022/05/09 01:59:21;;;;;;;;;;;13.20;99.90;;;;;;4934158;28;20559;-79
2022/05/09 02:01:49;;;;;;;;;;;13.20;99.90;;;;;;4957233;28;19933;-79
2022/05/09 02:04:18;;;;;;;;;;;13.20;99.90;;;;;;4959091;28;19930;-79
2022/05/09 02:06:45;;;;;;;;;;;13.20;99.90;;;;;;4956821;28;19958;-79
2022/05/09 02:09:12;;;;;;;;;;;13.20;99.90;;;;;;4949714;28;19934;-79
2022/05/09 02:11:42;;;;;;;;;;;13.20;99.90;;;;;;4951683;28;19973;-79
2022/05/09 02:14:09;;;;;;;;;;;13.10;99.90;;;;;;4951617;28;20341;-79
2022/05/09 02:16:37;;;;;;;;;;;13.10;99.90;;;;;;4933576;28;20017;-79
2022/05/09 02:19:05;;;;;;;;;;;13.10;99.90;;;;;;4952384;28;19926;-79
2022/05/09 02:21:32;;;;;;;;;;;13.10;99.90;;;;;;4933638;28;19926;-79
2022/05/09 02:23:59;;;;;;;;;;;13.10;99.90;;;;;;4949228;28;19978;-79
2022/05/09 02:26:26;;;;;;;;;;;13.10;99.90;;;;;;4957120;28;19930;-79
2022/05/09 02:28:55;;;;;;;;;;;13.10;99.90;;;;;;4950379;28;20031;-79
2022/05/09 02:31:23;;;;;;;;;;;13.10;99.90;;;;;;4954619;28;19937;-79
2022/05/09 02:33:51;;;;;;;;;;;13.10;99.90;;;;;;4949546;28;20543;-79
2022/05/09 02:36:18;;;;;;;;;;;13.00;99.90;;;;;;4951229;28;20132;-79
2022/05/09 02:38:45;;;;;;;;;;;13.00;99.90;;;;;;4951700;28;20374;-79
2022/05/09 02:41:12;;;;;;;;;;;13.00;99.90;;;;;;4951599;28;20554;-79
2022/05/09 02:43:39;;;;;;;;;;;13.00;99.90;;;;;;4954480;28;20385;-79
2022/05/09 02:46:13;;;;;;;;;;;13.00;99.90;;;;;;4953363;28;19926;-79
2022/05/09 02:48:41;;;;;;;;;;;13.00;99.90;;;;;;4940590;28;19926;-79
2022/05/09 02:51:09;;;;;;;;;;;12.90;99.90;;;;;;4962675;28;19968;-79
2022/05/09 02:53:36;;;;;;;;;;;12.90;99.90;;;;;;4947444;28;19926;-79
2022/05/09 02:56:04;;;;;;;;;;;12.90;99.90;;;;;;4952484;28;20324;-79
2022/05/09 02:58:31;;;;;;;;;;;12.90;99.90;;;;;;4953707;28;19926;-79
2022/05/09 03:00:59;;;;;;;;;;;12.90;99.90;;;;;;4961526;28;19935;-78
2022/05/09 03:06:12;;;;;;;;;;;12.90;99.90;;;;;;4950302;28;19934;-79
2022/05/09 03:08:39;;;;;;;;;;;12.80;99.90;;;;;;4935137;28;20021;-80
2022/05/09 03:11:06;;;;;;;;;;;12.80;99.90;;;;;;4942556;28;19930;-79
2022/05/09 03:13:33;;;;;;;;;;;12.80;99.90;;;;;;4945928;29;20680;-79
2022/05/09 03:16:01;;;;;;;;;;;12.80;99.90;;;;;;4963747;28;19927;-79
2022/05/09 03:18:29;;;;;;;;;;;12.80;99.90;;;;;;4957545;28;19927;-79
2022/05/09 03:20:57;;;;;;;;;;;12.80;99.90;;;;;;4951397;28;19926;-79
2022/05/09 03:23:24;;;;;;;;;;;12.80;99.90;;;;;;4950334;28;20021;-79
2022/05/09 03:25:51;;;;;;;;;;;12.80;99.90;;;;;;4936547;28;20025;-79
2022/05/09 03:28:20;;;;;;;;;;;12.70;99.90;;;;;;4950595;28;20025;-79
2022/05/09 03:30:48;;;;;;;;;;;12.70;99.90;;;;;;4931634;28;19926;-79
2022/05/09 03:33:15;;;;;;;;;;;12.70;99.90;;;;;;4959313;28;19976;-79
2022/05/09 03:35:44;;;;;;;;;;;12.70;99.90;;;;;;4949805;28;19926;-79
2022/05/09 03:38:11;;;;;;;;;;;12.70;99.90;;;;;;4932107;28;19957;-78
2022/05/09 03:40:39;;;;;;;;;;;12.70;99.90;;;;;;4955652;28;19930;-79
2022/05/09 03:43:06;;;;;;;;;;;12.70;99.90;;;;;;4935604;28;19933;-78
2022/05/09 03:45:33;;;;;;;;;;;12.60;99.90;;;;;;4923063;29;19982;-78
2022/05/09 03:48:00;;;;;;;;;;;12.60;99.90;;;;;;4941713;28;19998;-78
2022/05/09 03:50:28;;;;;;;;;;;12.60;99.90;;;;;;4950882;28;19934;-77
2022/05/09 03:52:56;;;;;;;;;;;12.60;99.90;;;;;;4940324;28;19927;-78
2022/05/09 03:55:24;;;;;;;;;;;12.60;99.90;;;;;;4943063;28;20195;-79
2022/05/09 03:57:52;;;;;;;;;;;12.60;99.90;;;;;;4960002;28;19985;-78
2022/05/09 04:00:21;;;;;;;;;;;12.60;99.90;;;;;;4930505;28;19934;-77
2022/05/09 04:02:48;;;;;;;;;;;12.50;99.90;;;;;;4939633;28;19973;-77
2022/05/09 04:05:17;;;;;;;;;;;12.50;99.90;;;;;;4957464;28;20357;-78
2022/05/09 04:07:45;;;;;;;;;;;12.50;99.90;;;;;;4954392;28;19954;-77
2022/05/09 04:10:14;;;;;;;;;;;12.50;99.90;;;;;;4947716;28;20581;-77
2022/05/09 04:12:41;;;;;;;;;;;12.50;99.90;;;;;;4948989;28;19949;-77
2022/05/09 04:17:53;;;;;;;;;;;12.50;99.90;;;;;;4944128;28;19979;-77
2022/05/09 04:20:20;;;;;;;;;;;12.50;99.90;;;;;;4922991;28;19942;-77
2022/05/09 04:22:47;;;;;;;;;;;12.40;99.90;;;;;;4944528;28;20037;-78
2022/05/09 04:25:20;;;;;;;;;;;12.40;99.90;;;;;;4943634;28;19942;-79
2022/05/09 04:27:47;;;;;;;;;;;12.40;99.90;;;;;;4941420;28;20415;-78
2022/05/09 04:30:14;;;;;;;;;;;12.40;99.90;;;;;;4934462;28;19934;-78
2022/05/09 04:32:42;;;;;;;;;;;12.40;99.90;;;;;;4939530;28;19938;-78
2022/05/09 04:35:11;;;;;;;;;;;12.30;99.90;;;;;;4940370;28;20310;-78
2022/05/09 04:37:39;;;;;;;;;;;12.30;99.90;;;;;;4942948;28;20377;-76
2022/05/09 04:40:07;;;;;;;;;;;12.30;99.90;;;;;;4938934;28;19927;-78
2022/05/09 04:42:36;;;;;;;;;;;12.30;99.90;;;;;;4947720;28;20502;-79
2022/05/09 04:45:03;;;;;;;;;;;12.30;99.90;;;;;;4932279;28;20423;-77
2022/05/09 04:47:30;;;;;;;;;;;12.30;99.90;;;;;;4941570;28;19933;-78
2022/05/09 04:49:57;;;;;;;;;;;12.30;99.90;;;;;;4926075;28;20345;-77
2022/05/09 04:52:24;;;;;;;;;;;12.30;99.90;;;;;;4940643;28;20032;-78
2022/05/09 04:54:51;;;;;;;;;;;12.20;99.90;;;;;;4948530;28;19934;-78
2022/05/09 04:57:18;;;;;;;;;;;12.20;99.90;;;;;;4950203;28;19942;-80
2022/05/09 04:59:47;;;;;;;;;;;12.20;99.90;;;;;;4936431;28;20002;-79
2022/05/09 05:02:14;;;;;;;;;;;12.20;99.90;;;;;;4946816;28;19993;-78
2022/05/09 05:04:42;;;;;;;;;;;12.20;99.90;;;;;;4949785;28;19933;-80
2022/05/09 05:07:09;;;;;;;;;;;12.20;99.90;;;;;;4949121;28;19930;-80
2022/05/09 05:09:36;;;;;;;;;;;12.20;99.90;;;;;;4941831;28;20282;-78
2022/05/09 05:12:03;;;;;;;;;;;12.20;99.90;;;;;;4938254;28;19938;-78
2022/05/09 05:14:30;;;;;;;;;;;12.20;99.90;;;;;;4937601;28;19936;-79
2022/05/09 05:17:01;;;;;;;;;;;12.20;99.90;;;;;;4946007;28;19970;-78
2022/05/09 05:19:29;;;;;;;;;;;;;;;;;;4933503;28;19941;-78
2022/05/09 05:21:57;;;;;;;;;;;11.90;99.90;;;;;;4936478;28;19930;-77
2022/05/09 05:24:24;;;;;;;;;;;11.90;99.90;;;;;;4928508;28;19964;-77
2022/05/09 05:26:52;;;;;;;;;;;11.90;99.90;;;;;;4944181;28;19931;-79
2022/05/09 05:29:19;;;;;;;;;;;11.80;99.90;;;;;;4947573;28;19961;-77
2022/05/09 05:31:47;;;;;;;;;;;11.90;99.90;;;;;;4951119;28;19945;-77
2022/05/09 05:34:15;;;;;;;;;;;11.90;99.90;;;;;;4953062;28;19950;-77
2022/05/09 05:36:42;;;;;;;;;;;11.90;99.90;;;;;;4949589;28;20057;-78
2022/05/09 05:39:13;;;;;;;;;;;11.90;99.90;;;;;;4931408;28;19946;-78
2022/05/09 05:41:40;;;;;;;;;;;11.90;99.90;;;;;;4952292;28;19926;-78
2022/05/09 05:44:11;;;;;;;;;;;12.00;99.90;;;;;;4950112;28;19929;-78
2022/05/09 05:46:39;;;;;;;;;;;12.00;99.90;;;;;;4940977;28;19935;-78
2022/05/09 05:49:06;;;;;;;;;;;12.00;99.90;;;;;;4933757;28;20548;-81
2022/05/09 05:51:34;;;;;;;;;;;12.10;99.90;;;;;;4941581;28;20257;-78
2022/05/09 05:54:01;;;;;;;;;;;12.10;99.90;;;;;;4941487;28;19982;-78
2022/05/09 05:56:28;;;;;;;;;;;12.10;99.90;;;;;;4943405;28;19931;-78
2022/05/09 05:58:55;;;;;;;;;;;12.10;99.90;;;;;;4937863;28;19934;-78
2022/05/09 06:01:22;;;;;;;;;;;12.20;99.90;;;;;;4955212;28;19981;-79
2022/05/09 06:03:49;;;;;;;;;;;12.20;99.90;;;;;;4946161;28;19927;-77
2022/05/09 06:06:17;;;;;;;;;;;12.20;99.90;;;;;;4943362;28;19932;-78
2022/05/09 06:08:46;;;;;;;;;;;12.30;99.90;;;;;;4941112;28;19965;-78
2022/05/09 06:11:13;;;;;;;;;;;12.30;99.90;;;;;;4949816;28;20499;-78
2022/05/09 06:13:40;;;;;;;;;;;12.30;99.90;;;;;;4942339;28;20618;-79
2022/05/09 06:16:07;;;;;;;;;;;12.30;99.90;;;;;;4937054;28;20389;-78
2022/05/09 06:18:35;;;;;;;;;;;12.40;99.90;;;;;;4940616;28;19985;-79
2022/05/09 06:21:03;;;;;;;;;;;12.40;99.90;;;;;;4949752;28;19934;-79
2022/05/09 06:23:30;;;;;;;;;;;12.40;99.90;;;;;;4941054;28;20389;-78
2022/05/09 06:25:58;;;;;;;;;;;12.40;99.90;;;;;;4942730;28;19927;-78
2022/05/09 06:28:25;;;;;;;;;;;12.50;99.90;;;;;;4952147;28;19954;-78
2022/05/09 06:30:53;;;;;;;;;;;12.50;99.90;;;;;;4944767;28;19933;-78
2022/05/09 06:33:22;;;;;;;;;;;12.50;99.90;;;;;;4925882;22;1988472;-83
2022/05/09 06:35:49;;;;;;;;;;;12.50;99.90;;;;;;4976501;28;19936;-83
2022/05/09 06:38:17;;;;;;;;;;;12.50;99.90;;;;;;4996537;28;19993;-83
2022/05/09 06:40:44;;;;;;;;;;;12.60;99.90;;;;;;4991622;28;19926;-82
2022/05/09 06:43:12;;;;;;;;;;;12.60;99.90;;;;;;4994070;28;19956;-82
2022/05/09 06:45:41;;;;;;;;;;;12.70;99.90;;;;;;4975718;28;19977;-83
2022/05/09 06:48:08;;;;;;;;;;;12.70;99.90;;;;;;4990323;28;19933;-82
2022/05/09 06:50:36;;;;;;;;;;;12.70;99.90;;;;;;4992643;28;19926;-82
2022/05/09 06:53:06;;;;;;;;;;;12.70;99.90;;;;;;4977027;28;20308;-82
2022/05/09 06:55:33;;;;;;;;;;;12.70;99.90;;;;;;4992490;28;19926;-83
2022/05/09 06:58:00;;;;;;;;;;;12.80;99.90;;;;;;4996872;28;19970;-83
2022/05/09 07:00:28;;;;;;;;;;;12.80;99.90;;;;;;4992059;28;20013;-83
2022/05/09 07:02:56;;;;;;;;;;;12.80;99.90;;;;;;4978963;28;20413;-83
2022/05/09 07:05:23;;;;;;;;;;;12.80;99.90;;;;;;4977045;28;19941;-83
2022/05/09 07:07:50;;;;;;;;;;;12.90;99.90;;;;;;4991178;28;19942;-82
2022/05/09 07:10:18;;;;;;;;;;;12.90;99.90;;;;;;4976342;28;19926;-82
2022/05/09 07:12:47;;;;;;;;;;;12.90;99.90;;;;;;4974515;28;19957;-82
2022/05/09 07:15:15;;;;;;;;;;;12.90;99.90;;;;;;4994928;28;20336;-82
2022/05/09 07:17:43;;;;;;;;;;;12.90;99.90;;;;;;4991863;28;20113;-82
2022/05/09 07:20:10;;;;;;;;;;;13.00;99.90;;;;;;4989869;28;19953;-82
2022/05/09 07:22:38;;;;;;;;;;;13.00;99.90;;;;;;4990500;28;19934;-82
2022/05/09 07:25:05;;;;;;;;;;;13.00;99.90;;;;;;4994104;28;19945;-82
2022/05/09 07:27:32;;;;;;;;;;;13.00;99.90;;;;;;4990270;28;19926;-82
2022/05/09 07:29:59;;;;;;;;;;;13.00;99.90;;;;;;4993742;28;19925;-82
2022/05/09 07:32:26;;;;;;;;;;;13.00;99.90;;;;;;4993421;28;19933;-83
2022/05/09 07:34:54;;;;;;;;;;;13.00;99.90;;;;;;4981358;28;21491;-82
2022/05/09 07:37:22;;;;;;;;;;;13.10;99.90;;;;;;4993847;28;19926;-82
2022/05/09 07:39:49;;;;;;;;;;;13.10;99.90;;;;;;4989094;28;19933;-83
2022/05/09 07:42:15;;;;;;;;;;;13.20;99.90;;;;;;4990293;28;19953;-83
2022/05/09 07:44:42;;;;;;;;;;;13.10;99.90;;;;;;4994420;28;20435;-83
2022/05/09 07:47:09;;;;;;;;;;;13.20;99.90;;;;;;4996212;28;19926;-82
2022/05/09 07:49:36;;;;;;;;;;;13.20;99.90;;;;;;4994110;28;19926;-83
2022/05/09 07:52:08;;;;;;;;;;;13.20;99.90;;;;;;4996385;28;19993;-83
2022/05/09 07:54:35;;;;;;;;;;;13.30;99.90;;;;;;4997392;28;20680;-82
2022/05/09 07:57:02;;;;;;;;;;;13.30;99.90;;;;;;4994988;28;19976;-83
2022/05/09 07:59:29;;;;;;;;;;;13.30;99.90;;;;;;5008454;23;19998;-83
2022/05/09 08:01:56;;;;;;;;;;;13.40;99.90;;;;;;5021789;28;20453;-83
2022/05/09 08:04:23;;;;;;;;;;;13.30;99.90;;;;;;5020929;28;19933;-83
2022/05/09 08:06:50;;;;;;;;;;;13.30;99.90;;;;;;5010099;28;19935;-83
2022/05/09 08:09:19;;;;;;;;;;;13.30;99.90;;;;;;5016990;28;20392;-83
2022/05/09 08:11:46;;;;;;;;;;;13.30;99.90;;;;;;5005972;28;19925;-83
2022/05/09 08:14:14;;;;;;;;;;;13.40;99.90;;;;;;5014656;28;19925;-83
2022/05/09 08:16:41;;;;;;;;;;;13.40;99.90;;;;;;4995866;28;19932;-83
2022/05/09 08:19:11;;;;;;;;;;;13.40;99.90;;;;;;5001550;28;19936;-82
2022/05/09 08:21:38;;;;;;;;;;;13.50;99.90;;;;;;5026661;28;19926;-82
2022/05/09 08:24:06;;;;;;;;;;;13.50;99.90;;;;;;5019828;28;20016;-84
2022/05/09 08:26:34;;;;;;;;;;;13.50;99.90;;;;;;5020217;28;19984;-82
2022/05/09 08:29:01;;;;;;;;;;;13.50;99.90;;;;;;5014673;28;19992;-82
2022/05/09 08:31:28;;;;;;;;;;;13.50;99.90;;;;;;5015787;28;19925;-82
2022/05/09 08:33:57;;;;;;;;;;;13.50;99.90;;;;;;5012870;28;20285;-82
2022/05/09 08:39:09;;;;;;;;;;;13.50;99.90;;;;;;5010552;28;20374;-82
2022/05/09 08:41:45;;;;;;;;;;;13.60;99.90;;;;;;4992848;28;19926;-81
2022/05/09 08:44:18;;;;;;;;;;;13.60;99.90;;;;;;4994664;28;19934;-81
2022/05/09 08:46:51;;;;;;;;;;;13.60;99.90;;;;;;5009364;28;19932;-82
2022/05/09 08:49:26;;;;;;;;;;;13.70;99.90;;;;;;5008189;28;19926;-81
2022/05/09 08:51:56;;;;;;;;;;;13.70;99.90;;;;;;5012021;28;19925;-82
2022/05/09 08:54:23;;;;;;;;;;;13.70;99.90;;;;;;5011815;28;20414;-82
2022/05/09 08:56:53;;;;;;;;;;;13.70;99.90;;;;;;5012524;28;19933;-82
2022/05/09 08:59:25;;;;;;;;;;;13.70;99.90;;;;;;5012993;28;19926;-82
2022/05/09 09:01:53;;;;;;;;;;;13.70;99.90;;;;;;5002351;28;19936;-82
2022/05/09 09:04:23;;;;;;;;;;;13.80;99.90;;;;;;5004283;28;19932;-83
2022/05/09 09:07:05;;;;;;;;;;;13.80;99.90;;;;;;4998945;28;20376;-82
2022/05/09 09:09:32;;;;;;;;;;;;;;;;;;5015649;28;20008;-82
2022/05/09 09:12:06;;;;;;;;;;;13.80;99.90;;;;;;5009556;28;19926;-82
2022/05/09 09:14:40;;;;;;;;;;;13.90;99.90;;;;;;5008629;28;19961;-82
2022/05/09 09:17:08;;;;;;;;;;;;;;;;;;5018593;28;19938;-82
2022/05/09 09:19:45;;;;;;;;;;;14.00;99.90;;;;;;5007231;28;19948;-81
2022/05/09 09:22:16;;;;;;;;;;;14.00;99.90;;;;;;5003036;28;20008;-86
2022/05/09 09:24:50;;;;;;;;;;;14.00;99.90;;;;;;5010618;28;19926;-82
2022/05/09 09:27:27;;;;;;;;;;;14.00;99.90;;;;;;5007400;28;20053;-87
2022/05/09 09:29:56;;;;;;;;;;;14.00;99.90;;;;;;5011702;28;19932;-84
2022/05/09 09:32:26;;;;;;;;;;;14.10;99.90;;;;;;5012325;28;19925;-82
2022/05/09 09:34:57;;;;;;;;;;;14.10;99.90;;;;;;5014229;28;19929;-84
2022/05/09 09:37:33;;;;;;;;;;;14.10;99.90;;;;;;5014014;28;19925;-87
2022/05/09 09:40:00;;;;;;;;;;;14.10;99.90;;;;;;4993115;28;19936;-84
2022/05/09 09:42:29;;;;;;;;;;;14.20;99.90;;;;;;5012426;28;20033;-83
2022/05/09 09:44:58;;;;;;;;;;;14.20;99.90;;;;;;5009021;28;19925;-82
2022/05/09 09:47:26;;;;;;;;;;;14.20;99.90;;;;;;5009425;28;19934;-82
2022/05/09 09:50:12;;;;;;;;;;;14.20;99.90;;;;;;5011896;28;19931;-82
2022/05/09 09:52:41;;;;;;;;;;;14.30;99.90;;;;;;5013825;28;19933;-82
2022/05/09 09:55:10;;;;;;;;;;;14.30;99.90;;;;;;5005003;28;19936;-81
2022/05/09 09:57:38;;;;;;;;;;;14.30;99.90;;;;;;5009743;28;19925;-81
2022/05/09 10:00:15;;;;;;;;;;;14.30;99.90;;;;;;4988869;28;20272;-82
2022/05/09 10:02:42;;;;;;;;;;;14.40;99.90;;;;;;4992605;28;19930;-82
2022/05/09 10:05:11;;;;;;;;;;;14.40;99.90;;;;;;5000896;28;19976;-82
2022/05/09 10:07:39;;;;;;;;;;;14.40;99.90;;;;;;5003909;28;19926;-82
2022/05/09 10:10:11;;;;;;;;;;;14.40;99.90;;;;;;5002661;28;19937;-82
2022/05/09 10:12:40;;;;;;;;;;;14.50;99.90;;;;;;4995765;28;19926;-82
2022/05/09 10:15:22;;;;;;;;;;;14.50;99.90;;;;;;4994372;28;19961;-82
2022/05/09 10:17:49;;;;;;;;;;;14.50;99.90;;;;;;4993175;28;19978;-82
2022/05/09 10:20:24;;;;;;;;;;;14.50;99.90;;;;;;4996775;28;19936;-82
2022/05/09 10:25:37;;;;;;;;;;;14.60;99.90;;;;;;5001017;28;19922;-82
2022/05/09 10:28:07;;;;;;;;;;;14.60;99.90;;;;;;4996588;28;20306;-82
2022/05/09 10:30:36;;;;;;;;;;;14.70;99.90;;;;;;4992116;28;20388;-82
2022/05/09 10:33:06;;;;;;;;;;;14.70;99.90;;;;;;4990499;28;20004;-87
2022/05/09 10:35:35;;;;;;;;;;;14.70;99.90;;;;;;4982589;28;19934;-82
2022/05/09 10:38:03;;;;;;;;;;;14.80;99.90;;;;;;4995251;28;19940;-87
2022/05/09 10:40:32;;;;;;;;;;;14.80;99.90;;;;;;4992915;28;20115;-82
2022/05/09 10:43:01;;;;;;;;;;;14.80;99.90;;;;;;4993775;28;19987;-80
2022/05/09 10:45:31;;;;;;;;;;;14.80;99.90;;;;;;4987888;28;20388;-80
2022/05/09 10:48:02;;;;;;;;;;;14.90;99.90;;;;;;4990209;28;20420;-81
2022/05/09 10:50:32;;;;;;;;;;;14.90;99.90;;;;;;4992199;28;19973;-80
2022/05/09 10:53:06;;;;;;;;;;;14.90;99.90;;;;;;4992599;28;19937;-88
2022/05/09 10:55:36;;;;;;;;;;;14.90;99.90;;;;;;4992865;28;20205;-82
2022/05/09 10:58:05;;;;;;;;;;;15.00;99.90;;;;;;4984704;28;19996;-82
2022/05/09 11:00:34;;;;;;;;;;;15.00;99.90;;;;;;5004924;28;20391;-81
2022/05/09 11:03:06;;;;;;;;;;;15.00;99.90;;;;;;5011895;28;19951;-81
2022/05/09 11:05:38;;;;;;;;;;;15.00;99.90;;;;;;5012455;28;19932;-84
2022/05/09 11:08:12;;;;;;;;;;;15.00;99.90;;;;;;5006463;28;19936;-82
2022/05/09 11:10:44;;;;;;;;;;;15.10;99.90;;;;;;4991873;28;19969;-82
2022/05/09 11:13:19;;;;;;;;;;;15.10;99.90;;;;;;5010210;28;19926;-80
2022/05/09 11:15:52;;;;;;;;;;;15.10;99.90;;;;;;4998265;28;20023;-78
2022/05/09 11:18:25;;;;;;;;;;;15.20;99.90;;;;;;5007902;28;19933;-79
2022/05/09 11:20:53;;;;;;;;;;;15.20;99.90;;;;;;5002074;28;20304;-78
2022/05/09 11:23:28;;;;;;;;;;;15.20;99.90;;;;;;5002615;28;19937;-78
2022/05/09 11:26:01;;;;;;;;;;;15.20;99.90;;;;;;5005375;28;19932;-79
2022/05/09 11:28:45;;;;;;;;;;;15.30;99.90;;;;;;4988589;28;20434;-81
2022/05/09 11:31:20;;;;;;;;;;;15.30;99.90;;;;;;4987383;28;19925;-82
2022/05/09 11:33:51;;;;;;;;;;;15.30;99.90;;;;;;5010655;28;19932;-80
2022/05/09 11:36:32;;;;;;;;;;;15.40;99.90;;;;;;4986924;28;19952;-82
2022/05/09 11:39:02;;;;;;;;;;;15.40;99.90;;;;;;4992940;28;20308;-80
2022/05/09 11:41:32;;;;;;;;;;;15.40;99.90;;;;;;5008757;28;19925;-80
2022/05/09 11:44:09;;;;;;;;;;;15.60;99.90;;;;;;4987533;28;19932;-79
2022/05/09 11:46:53;;;;;;;;;;;15.50;99.90;;;;;;4994946;28;19972;-79
2022/05/09 11:49:33;;;;;;;;;;;15.60;99.90;;;;;;4983681;28;19932;-79
2022/05/09 11:52:06;;;;;;;;;;;15.60;99.90;;;;;;5005728;28;19948;-81
2022/05/09 11:54:36;;;;;;;;;;;15.60;99.90;;;;;;4995583;28;19948;-80
2022/05/09 11:57:04;;;;;;;;;;;15.60;99.90;;;;;;5015271;28;19960;-78
2022/05/09 11:59:32;;;;;;;;;;;15.60;99.90;;;;;;4995729;28;19937;-79
2022/05/09 12:02:03;;;;;;;;;;;15.70;99.90;;;;;;4984000;28;19961;-79
2022/05/09 12:04:39;;;;;;;;;;;15.70;99.90;;;;;;4976071;28;19926;-79
2022/05/09 12:07:20;;;;;;;;;;;15.70;99.90;;;;;;4986543;28;20459;-81
2022/05/09 12:10:02;;;;;;;;;;;15.70;99.90;;;;;;4972738;28;19933;-80
2022/05/09 12:12:49;;;;;;;;;;;15.70;99.90;;;;;;4962017;28;19951;-80
2022/05/09 12:15:34;;;;;;;;;;;15.80;99.90;;;;;;4959387;28;19930;-80
2022/05/09 12:18:17;;;;;;;;;;;15.80;99.90;;;;;;4976434;28;20387;-80
2022/05/09 12:21:18;;;;;;;;;;;15.80;99.90;;;;;;4977747;28;19941;-79
2022/05/09 12:24:05;;;;;;;;;;;15.90;99.90;;;;;;4887950;29;19950;-80
2022/05/09 12:26:34;;;;;;;;;;;15.90;99.90;;;;;;4877183;29;19927;-80
2022/05/09 12:29:24;;;;;;;;;;;15.90;99.90;;;;;;4942853;28;19930;-78
2022/05/09 12:31:52;;;;;;;;;;;16.00;99.90;;;;;;4948721;28;19930;-81
2022/05/09 12:34:23;;;;;;;;;;;16.00;99.90;;;;;;5058234;23;20314;-80
2022/05/09 12:37:01;;;;;;;;;;;16.00;99.90;;;;;;4967238;28;19926;-80
2022/05/09 12:39:34;;;;;;;;;;;16.10;99.90;;;;;;4960392;28;19941;-80
2022/05/09 12:42:04;;;;;;;;;;;16.10;99.90;;;;;;4966236;28;19929;-80
2022/05/09 12:44:33;;;;;;;;;;;16.10;99.90;;;;;;4963604;28;19930;-79
2022/05/09 12:47:02;;;;;;;;;;;16.10;99.90;;;;;;4968700;28;19925;-80
2022/05/09 12:49:36;;;;;;;;;;;16.20;99.90;;;;;;4967347;28;20707;-80
2022/05/09 12:52:04;;;;;;;;;;;16.20;99.90;;;;;;4965918;28;20374;-80
2022/05/09 12:54:33;;;;;;;;;;;16.30;99.90;;;;;;4965970;28;19934;-79
2022/05/09 12:57:01;;;;;;;;;;;16.30;99.90;;;;;;4968375;28;19926;-79
2022/05/09 12:59:30;;;;;;;;;;;16.30;99.90;;;;;;4967119;28;19934;-79
2022/05/09 13:01:58;;;;;;;;;;;16.30;99.90;;;;;;4967694;28;19956;-79
2022/05/09 13:04:26;;;;;;;;;;;16.40;99.90;;;;;;4960485;28;19926;-79
2022/05/09 13:06:55;;;;;;;;;;;16.40;99.90;;;;;;4963107;28;20485;-80
2022/05/09 13:09:23;;;;;;;;;;;16.50;99.90;;;;;;4976638;28;19957;-81
2022/05/09 13:11:58;;;;;;;;;;;16.50;99.90;;;;;;4973885;28;19949;-81
2022/05/09 13:14:27;;;;;;;;;;;16.50;99.90;;;;;;4975469;28;19950;-81
2022/05/09 13:16:56;;;;;;;;;;;16.60;99.90;;;;;;4973578;28;20008;-79
2022/05/09 13:19:24;;;;;;;;;;;16.60;99.90;;;;;;4971613;28;19937;-81
2022/05/09 13:22:09;;;;;;;;;;;16.60;99.90;;;;;;5364923;23;20000;-82
2022/05/09 14:19:35;;;;;;;;;;;17.50;99.90;;;;;;5040312;28;19921;-84
2022/05/09 14:22:13;;;;;;;;;;;17.50;99.90;;;;;;5043090;28;19926;-82
2022/05/09 14:47:11;;;;;;;;;;;17.80;99.90;;;;;;5257018;23;19933;-80
2022/05/09 15:02:33;;;;;;;;;;;18.10;99.90;;;;;;5006301;28;20379;-80
2022/05/09 15:07:58;;;;;;;;;;;18.10;99.90;;;;;;5011740;28;19925;-81
2022/05/09 15:10:42;;;;;;;;;;;18.20;99.90;;;;;;5004146;28;19948;-81
2022/05/09 15:13:27;;;;;;;;;;;18.20;99.90;;;;;;5012914;28;19934;-79
2022/05/09 15:16:32;;;;;;;;;;;18.20;99.90;;;;;;4993464;28;19926;-80
2022/05/09 15:22:20;;;;;;;;;;;18.30;99.90;;;;;;4997390;28;20022;-80
2022/05/09 15:24:50;;;;;;;;;;;18.30;99.90;;;;;;4992437;28;20017;-81
2022/05/09 15:27:18;;;;;;;;;;;18.30;99.90;;;;;;5000841;28;20030;-79
2022/05/09 15:29:45;;;;;;;;;;;18.40;99.90;;;;;;4988733;28;19933;-79
2022/05/09 15:32:14;;;;;;;;;;;18.40;99.90;;;;;;5003589;28;19988;-79
2022/05/09 15:34:41;;;;;;;;;;;18.40;99.90;;;;;;5007328;28;20458;-79
2022/05/09 15:37:10;;;;;;;;;;;18.50;99.90;;;;;;4999795;28;19925;-79
2022/05/09 15:39:38;;;;;;;;;;;18.50;99.90;;;;;;4988788;28;19929;-79
2022/05/09 15:42:07;;;;;;;;;;;18.50;99.90;;;;;;5007180;28;20292;-79
2022/05/09 15:44:34;;;;;;;;;;;18.50;99.90;;;;;;5002145;28;19926;-79
2022/05/09 15:47:01;;;;;;;;;;;18.60;99.90;;;;;;5003184;28;19930;-79
2022/05/09 15:49:31;;;;;;;;;;;18.60;99.90;;;;;;4994309;28;20476;-79
2022/05/09 15:51:58;;;;;;;;;;;18.60;99.90;;;;;;5002575;28;20447;-79
2022/05/09 15:54:26;;;;;;;;;;;18.70;99.90;;;;;;4998582;28;20521;-79
2022/05/09 15:56:56;;;;;;;;;;;18.60;99.90;;;;;;4975159;28;19957;-79
2022/05/09 15:59:35;;;;;;;;;;;18.70;99.90;;;;;;4998994;28;19940;-79
2022/05/09 16:02:04;;;;;;;;;;;18.70;99.90;;;;;;5002120;28;19926;-78
2022/05/09 16:04:34;;;;;;;;;;;18.70;99.90;;;;;;4974387;28;19932;-78
2022/05/09 16:12:34;;;;;;;;;;;18.80;99.90;;;;;;5000586;28;20024;-78
2022/05/09 16:15:03;;;;;;;;;;;18.90;99.90;;;;;;5003121;28;20003;-78
2022/05/09 16:17:31;;;;;;;;;;;18.90;99.90;;;;;;4986412;28;20216;-78
2022/05/09 16:19:59;;;;;;;;;;;18.90;99.90;;;;;;4984185;28;20011;-78
2022/05/09 16:22:27;;;;;;;;;;;18.90;99.90;;;;;;4999365;28;19932;-78
2022/05/09 16:24:55;;;;;;;;;;;18.90;99.90;;;;;;5001451;28;19929;-78
2022/05/09 16:27:25;;;;;;;;;;;19.00;99.90;;;;;;5003633;28;20392;-78